sensor_id;sensor_type;location;lat;lon;timestamp;P1;durP1;ratioP1;P2;durP2;ratioP2
79640;SDS011;69115;49.904;14.390;2023-08-21T00:01:41;13.18;;;10.60;;
79640;SDS011;69115;49.904;14.390;2023-08-21T00:04:07;10.82;;;9.73;;
79640;SDS011;69115;49.904;14.390;2023-08-21T00:06:32;12.38;;;10.25;;
79640;SDS011;69115;49.904;14.390;2023-08-21T00:08:58;11.50;;;9.82;;
79640;SDS011;69115;49.904;14.390;2023-08-21T00:11:23;14.85;;;10.20;;
79640;SDS011;69115;49.904;14.390;2023-08-21T00:13:48;11.52;;;10.25;;
79640;SDS011;69115;49.904;14.390;2023-08-21T00:16:14;11.25;;;9.23;;
79640;SDS011;69115;49.904;14.390;2023-08-21T00:18:41;11.57;;;10.02;;
79640;SDS011;69115;49.904;14.390;2023-08-21T00:21:06;14.40;;;10.18;;
79640;SDS011;69115;49.904;14.390;2023-08-21T00:23:31;11.82;;;10.55;;
79640;SDS011;69115;49.904;14.390;2023-08-21T00:25:57;12.25;;;10.32;;
79640;SDS011;69115;49.904;14.390;2023-08-21T00:28:22;12.77;;;10.55;;
79640;SDS011;69115;49.904;14.390;2023-08-21T00:30:48;12.88;;;10.32;;
79640;SDS011;69115;49.904;14.390;2023-08-21T00:33:13;14.35;;;11.00;;
79640;SDS011;69115;49.904;14.390;2023-08-21T00:35:38;11.60;;;10.25;;
79640;SDS011;69115;49.904;14.390;2023-08-21T00:38:04;13.70;;;10.95;;
79640;SDS011;69115;49.904;14.390;2023-08-21T00:40:30;13.73;;;9.73;;
79640;SDS011;69115;49.904;14.390;2023-08-21T00:42:56;12.75;;;10.43;;
79640;SDS011;69115;49.904;14.390;2023-08-21T00:45:21;17.23;;;10.98;;
79640;SDS011;69115;49.904;14.390;2023-08-21T00:47:47;12.23;;;10.43;;
79640;SDS011;69115;49.904;14.390;2023-08-21T00:50:12;14.02;;;9.68;;
79640;SDS011;69115;49.904;14.390;2023-08-21T00:52:40;13.43;;;10.85;;
79640;SDS011;69115;49.904;14.390;2023-08-21T00:55:08;13.98;;;10.55;;
79640;SDS011;69115;49.904;14.390;2023-08-21T00:57:34;12.20;;;10.52;;
79640;SDS011;69115;49.904;14.390;2023-08-21T01:00:00;13.77;;;10.77;;
79640;SDS011;69115;49.904;14.390;2023-08-21T01:02:26;11.35;;;9.30;;
79640;SDS011;69115;49.904;14.390;2023-08-21T01:04:51;13.23;;;10.57;;
79640;SDS011;69115;49.904;14.390;2023-08-21T01:07:17;13.60;;;11.30;;
79640;SDS011;69115;49.904;14.390;2023-08-21T01:15:04;13.95;;;11.15;;
79640;SDS011;69115;49.904;14.390;2023-08-21T01:17:31;15.55;;;10.93;;
79640;SDS011;69115;49.904;14.390;2023-08-21T01:19:59;11.73;;;10.18;;
79640;SDS011;69115;49.904;14.390;2023-08-21T01:22:25;16.80;;;11.85;;
79640;SDS011;69115;49.904;14.390;2023-08-21T01:24:52;12.38;;;10.50;;
79640;SDS011;69115;49.904;14.390;2023-08-21T01:27:18;14.68;;;11.38;;
79640;SDS011;69115;49.904;14.390;2023-08-21T01:29:46;16.52;;;11.80;;
79640;SDS011;69115;49.904;14.390;2023-08-21T01:32:29;13.65;;;11.25;;
79640;SDS011;69115;49.904;14.390;2023-08-21T01:34:59;14.75;;;11.43;;
79640;SDS011;69115;49.904;14.390;2023-08-21T01:37:24;12.55;;;10.93;;
79640;SDS011;69115;49.904;14.390;2023-08-21T01:39:52;14.57;;;10.43;;
79640;SDS011;69115;49.904;14.390;2023-08-21T01:42:22;13.93;;;11.30;;
79640;SDS011;69115;49.904;14.390;2023-08-21T01:44:47;13.02;;;10.98;;
79640;SDS011;69115;49.904;14.390;2023-08-21T01:47:13;11.93;;;10.18;;
79640;SDS011;69115;49.904;14.390;2023-08-21T01:49:38;14.25;;;11.50;;
79640;SDS011;69115;49.904;14.390;2023-08-21T01:52:03;12.27;;;10.23;;
79640;SDS011;69115;49.904;14.390;2023-08-21T01:54:29;14.90;;;11.52;;
79640;SDS011;69115;49.904;14.390;2023-08-21T01:56:54;16.60;;;10.88;;
79640;SDS011;69115;49.904;14.390;2023-08-21T01:59:20;14.77;;;11.10;;
79640;SDS011;69115;49.904;14.390;2023-08-21T02:01:46;14.50;;;10.50;;
79640;SDS011;69115;49.904;14.390;2023-08-21T02:04:11;13.15;;;10.80;;
79640;SDS011;69115;49.904;14.390;2023-08-21T02:06:37;13.20;;;11.20;;
79640;SDS011;69115;49.904;14.390;2023-08-21T02:09:02;14.60;;;10.25;;
79640;SDS011;69115;49.904;14.390;2023-08-21T02:11:28;14.20;;;10.30;;
79640;SDS011;69115;49.904;14.390;2023-08-21T02:13:53;12.05;;;10.70;;
79640;SDS011;69115;49.904;14.390;2023-08-21T02:16:18;14.10;;;10.55;;
79640;SDS011;69115;49.904;14.390;2023-08-21T02:18:45;11.02;;;9.93;;
79640;SDS011;69115;49.904;14.390;2023-08-21T02:21:10;15.90;;;10.32;;
79640;SDS011;69115;49.904;14.390;2023-08-21T02:23:36;14.02;;;11.10;;
79640;SDS011;69115;49.904;14.390;2023-08-21T02:26:01;11.13;;;9.80;;
79640;SDS011;69115;49.904;14.390;2023-08-21T02:28:27;13.43;;;10.70;;
79640;SDS011;69115;49.904;14.390;2023-08-21T02:30:52;13.73;;;10.35;;
79640;SDS011;69115;49.904;14.390;2023-08-21T02:33:17;15.27;;;10.98;;
79640;SDS011;69115;49.904;14.390;2023-08-21T02:35:43;14.18;;;10.80;;
79640;SDS011;69115;49.904;14.390;2023-08-21T02:38:08;13.23;;;10.82;;
79640;SDS011;69115;49.904;14.390;2023-08-21T02:40:34;12.48;;;10.88;;
79640;SDS011;69115;49.904;14.390;2023-08-21T02:42:59;13.60;;;10.18;;
79640;SDS011;69115;49.904;14.390;2023-08-21T02:45:24;12.68;;;10.25;;
79640;SDS011;69115;49.904;14.390;2023-08-21T02:47:50;13.65;;;10.80;;
79640;SDS011;69115;49.904;14.390;2023-08-21T02:50:16;15.10;;;11.23;;
79640;SDS011;69115;49.904;14.390;2023-08-21T02:52:41;12.63;;;9.88;;
79640;SDS011;69115;49.904;14.390;2023-08-21T02:55:07;12.77;;;10.90;;
79640;SDS011;69115;49.904;14.390;2023-08-21T02:57:33;16.23;;;11.63;;
79640;SDS011;69115;49.904;14.390;2023-08-21T02:59:58;17.08;;;11.60;;
79640;SDS011;69115;49.904;14.390;2023-08-21T03:02:24;15.57;;;12.00;;
79640;SDS011;69115;49.904;14.390;2023-08-21T03:04:49;13.85;;;11.68;;
79640;SDS011;69115;49.904;14.390;2023-08-21T03:07:15;14.50;;;10.85;;
79640;SDS011;69115;49.904;14.390;2023-08-21T03:09:40;17.00;;;12.68;;
79640;SDS011;69115;49.904;14.390;2023-08-21T03:12:06;14.60;;;11.40;;
79640;SDS011;69115;49.904;14.390;2023-08-21T03:14:32;15.18;;;11.70;;
79640;SDS011;69115;49.904;14.390;2023-08-21T03:16:58;15.43;;;12.13;;
79640;SDS011;69115;49.904;14.390;2023-08-21T03:19:23;14.68;;;10.73;;
79640;SDS011;69115;49.904;14.390;2023-08-21T03:21:49;14.40;;;11.75;;
79640;SDS011;69115;49.904;14.390;2023-08-21T03:24:14;13.88;;;10.93;;
79640;SDS011;69115;49.904;14.390;2023-08-21T03:26:39;15.30;;;11.75;;
79640;SDS011;69115;49.904;14.390;2023-08-21T03:29:05;16.95;;;12.65;;
79640;SDS011;69115;49.904;14.390;2023-08-21T03:31:30;13.18;;;11.02;;
79640;SDS011;69115;49.904;14.390;2023-08-21T03:33:56;15.13;;;11.52;;
79640;SDS011;69115;49.904;14.390;2023-08-21T03:36:22;15.15;;;12.18;;
79640;SDS011;69115;49.904;14.390;2023-08-21T03:38:55;14.73;;;11.40;;
79640;SDS011;69115;49.904;14.390;2023-08-21T03:41:24;16.70;;;11.25;;
79640;SDS011;69115;49.904;14.390;2023-08-21T03:43:49;13.35;;;11.75;;
79640;SDS011;69115;49.904;14.390;2023-08-21T03:46:15;13.98;;;11.48;;
79640;SDS011;69115;49.904;14.390;2023-08-21T03:48:40;13.38;;;10.35;;
79640;SDS011;69115;49.904;14.390;2023-08-21T03:51:06;13.35;;;10.82;;
79640;SDS011;69115;49.904;14.390;2023-08-21T03:53:31;12.18;;;10.20;;
79640;SDS011;69115;49.904;14.390;2023-08-21T03:55:57;14.27;;;10.85;;
79640;SDS011;69115;49.904;14.390;2023-08-21T03:58:22;15.30;;;10.77;;
79640;SDS011;69115;49.904;14.390;2023-08-21T04:00:50;13.60;;;10.35;;
79640;SDS011;69115;49.904;14.390;2023-08-21T04:03:16;13.25;;;10.73;;
79640;SDS011;69115;49.904;14.390;2023-08-21T04:05:41;12.35;;;9.77;;
79640;SDS011;69115;49.904;14.390;2023-08-21T04:08:06;13.65;;;10.38;;
79640;SDS011;69115;49.904;14.390;2023-08-21T04:10:32;10.50;;;9.35;;
79640;SDS011;69115;49.904;14.390;2023-08-21T04:12:58;15.13;;;9.57;;
79640;SDS011;69115;49.904;14.390;2023-08-21T04:15:23;14.40;;;9.48;;
79640;SDS011;69115;49.904;14.390;2023-08-21T04:17:49;13.57;;;10.13;;
79640;SDS011;69115;49.904;14.390;2023-08-21T04:20:14;15.55;;;9.57;;
79640;SDS011;69115;49.904;14.390;2023-08-21T04:22:40;11.60;;;9.80;;
79640;SDS011;69115;49.904;14.390;2023-08-21T04:25:05;13.52;;;10.32;;
79640;SDS011;69115;49.904;14.390;2023-08-21T04:27:32;13.70;;;9.68;;
79640;SDS011;69115;49.904;14.390;2023-08-21T04:29:58;14.80;;;10.27;;
79640;SDS011;69115;49.904;14.390;2023-08-21T04:32:24;13.68;;;9.68;;
79640;SDS011;69115;49.904;14.390;2023-08-21T04:34:49;14.93;;;10.95;;
79640;SDS011;69115;49.904;14.390;2023-08-21T04:37:15;22.65;;;11.75;;
79640;SDS011;69115;49.904;14.390;2023-08-21T04:39:40;14.82;;;10.18;;
79640;SDS011;69115;49.904;14.390;2023-08-21T04:42:06;19.05;;;11.00;;
79640;SDS011;69115;49.904;14.390;2023-08-21T04:44:31;16.35;;;11.40;;
79640;SDS011;69115;49.904;14.390;2023-08-21T04:46:56;14.57;;;11.38;;
79640;SDS011;69115;49.904;14.390;2023-08-21T04:49:22;19.83;;;13.40;;
79640;SDS011;69115;49.904;14.390;2023-08-21T04:51:47;17.58;;;12.35;;
79640;SDS011;69115;49.904;14.390;2023-08-21T04:54:13;17.45;;;13.35;;
79640;SDS011;69115;49.904;14.390;2023-08-21T04:56:38;19.95;;;13.38;;
79640;SDS011;69115;49.904;14.390;2023-08-21T04:59:03;17.70;;;11.48;;
79640;SDS011;69115;49.904;14.390;2023-08-21T05:01:29;15.98;;;13.50;;
79640;SDS011;69115;49.904;14.390;2023-08-21T05:03:54;17.73;;;13.25;;
79640;SDS011;69115;49.904;14.390;2023-08-21T05:06:20;19.63;;;13.25;;
79640;SDS011;69115;49.904;14.390;2023-08-21T05:08:45;15.60;;;12.77;;
79640;SDS011;69115;49.904;14.390;2023-08-21T05:11:11;18.60;;;13.35;;
79640;SDS011;69115;49.904;14.390;2023-08-21T05:13:36;19.65;;;13.38;;
79640;SDS011;69115;49.904;14.390;2023-08-21T05:16:01;17.52;;;12.82;;
79640;SDS011;69115;49.904;14.390;2023-08-21T05:18:27;16.35;;;13.23;;
79640;SDS011;69115;49.904;14.390;2023-08-21T05:20:54;18.88;;;13.68;;
79640;SDS011;69115;49.904;14.390;2023-08-21T05:23:20;18.13;;;12.10;;
79640;SDS011;69115;49.904;14.390;2023-08-21T05:25:46;16.40;;;12.32;;
79640;SDS011;69115;49.904;14.390;2023-08-21T05:28:13;19.02;;;13.57;;
79640;SDS011;69115;49.904;14.390;2023-08-21T05:30:38;14.85;;;11.85;;
79640;SDS011;69115;49.904;14.390;2023-08-21T05:33:04;18.83;;;11.57;;
79640;SDS011;69115;49.904;14.390;2023-08-21T05:35:33;15.32;;;9.98;;
79640;SDS011;69115;49.904;14.390;2023-08-21T05:37:59;15.98;;;11.52;;
79640;SDS011;69115;49.904;14.390;2023-08-21T05:40:25;16.25;;;11.43;;
79640;SDS011;69115;49.904;14.390;2023-08-21T05:42:50;13.60;;;10.57;;
79640;SDS011;69115;49.904;14.390;2023-08-21T05:45:15;13.48;;;10.85;;
79640;SDS011;69115;49.904;14.390;2023-08-21T05:47:41;15.20;;;11.18;;
79640;SDS011;69115;49.904;14.390;2023-08-21T05:50:06;17.48;;;11.98;;
79640;SDS011;69115;49.904;14.390;2023-08-21T05:52:32;14.63;;;11.05;;
79640;SDS011;69115;49.904;14.390;2023-08-21T05:54:57;14.60;;;11.30;;
79640;SDS011;69115;49.904;14.390;2023-08-21T05:57:23;18.50;;;11.27;;
79640;SDS011;69115;49.904;14.390;2023-08-21T05:59:49;16.33;;;10.73;;
79640;SDS011;69115;49.904;14.390;2023-08-21T06:02:14;14.13;;;10.77;;
79640;SDS011;69115;49.904;14.390;2023-08-21T06:04:40;17.60;;;11.43;;
79640;SDS011;69115;49.904;14.390;2023-08-21T06:07:06;14.75;;;11.00;;
79640;SDS011;69115;49.904;14.390;2023-08-21T06:09:32;13.77;;;11.07;;
79640;SDS011;69115;49.904;14.390;2023-08-21T06:12:02;15.05;;;10.77;;
79640;SDS011;69115;49.904;14.390;2023-08-21T06:14:28;17.65;;;10.90;;
79640;SDS011;69115;49.904;14.390;2023-08-21T06:17:03;13.73;;;10.48;;
79640;SDS011;69115;49.904;14.390;2023-08-21T06:19:29;16.73;;;10.77;;
79640;SDS011;69115;49.904;14.390;2023-08-21T06:21:55;18.17;;;10.65;;
79640;SDS011;69115;49.904;14.390;2023-08-21T06:24:21;14.60;;;11.32;;
79640;SDS011;69115;49.904;14.390;2023-08-21T06:26:47;15.02;;;10.43;;
79640;SDS011;69115;49.904;14.390;2023-08-21T06:29:12;17.40;;;10.88;;
79640;SDS011;69115;49.904;14.390;2023-08-21T06:31:37;14.45;;;10.45;;
79640;SDS011;69115;49.904;14.390;2023-08-21T06:34:03;14.93;;;10.85;;
79640;SDS011;69115;49.904;14.390;2023-08-21T06:36:28;15.55;;;10.52;;
79640;SDS011;69115;49.904;14.390;2023-08-21T06:38:54;16.13;;;10.15;;
79640;SDS011;69115;49.904;14.390;2023-08-21T06:41:20;12.38;;;10.52;;
79640;SDS011;69115;49.904;14.390;2023-08-21T06:43:46;12.98;;;10.23;;
79640;SDS011;69115;49.904;14.390;2023-08-21T06:46:11;12.07;;;10.55;;
79640;SDS011;69115;49.904;14.390;2023-08-21T06:48:38;12.35;;;10.52;;
79640;SDS011;69115;49.904;14.390;2023-08-21T06:51:05;14.82;;;10.65;;
79640;SDS011;69115;49.904;14.390;2023-08-21T06:53:31;12.45;;;10.77;;
79640;SDS011;69115;49.904;14.390;2023-08-21T06:55:56;16.10;;;9.82;;
79640;SDS011;69115;49.904;14.390;2023-08-21T06:58:22;12.88;;;9.80;;
79640;SDS011;69115;49.904;14.390;2023-08-21T07:00:47;16.17;;;9.98;;
79640;SDS011;69115;49.904;14.390;2023-08-21T07:03:13;14.80;;;10.18;;
79640;SDS011;69115;49.904;14.390;2023-08-21T07:05:38;12.50;;;10.48;;
79640;SDS011;69115;49.904;14.390;2023-08-21T07:08:04;12.07;;;9.60;;
79640;SDS011;69115;49.904;14.390;2023-08-21T07:10:30;12.35;;;10.15;;
79640;SDS011;69115;49.904;14.390;2023-08-21T07:13:01;11.05;;;9.23;;
79640;SDS011;69115;49.904;14.390;2023-08-21T07:15:26;14.23;;;10.00;;
79640;SDS011;69115;49.904;14.390;2023-08-21T07:17:51;11.07;;;9.43;;
79640;SDS011;69115;49.904;14.390;2023-08-21T07:20:17;11.70;;;9.95;;
79640;SDS011;69115;49.904;14.390;2023-08-21T07:22:42;12.48;;;10.30;;
79640;SDS011;69115;49.904;14.390;2023-08-21T07:25:08;16.05;;;10.00;;
79640;SDS011;69115;49.904;14.390;2023-08-21T07:27:33;12.73;;;11.10;;
79640;SDS011;69115;49.904;14.390;2023-08-21T07:29:59;12.30;;;9.15;;
79640;SDS011;69115;49.904;14.390;2023-08-21T07:32:24;13.65;;;9.50;;
79640;SDS011;69115;49.904;14.390;2023-08-21T07:34:53;14.93;;;10.70;;
79640;SDS011;69115;49.904;14.390;2023-08-21T07:37:19;13.55;;;10.50;;
79640;SDS011;69115;49.904;14.390;2023-08-21T07:39:45;12.90;;;10.65;;
79640;SDS011;69115;49.904;14.390;2023-08-21T07:42:11;13.38;;;10.27;;
79640;SDS011;69115;49.904;14.390;2023-08-21T07:44:38;12.07;;;10.02;;
79640;SDS011;69115;49.904;14.390;2023-08-21T07:47:04;11.63;;;10.10;;
79640;SDS011;69115;49.904;14.390;2023-08-21T07:49:30;12.63;;;10.50;;
79640;SDS011;69115;49.904;14.390;2023-08-21T07:51:56;13.48;;;10.65;;
79640;SDS011;69115;49.904;14.390;2023-08-21T07:54:21;12.57;;;10.25;;
79640;SDS011;69115;49.904;14.390;2023-08-21T07:56:47;12.95;;;10.73;;
79640;SDS011;69115;49.904;14.390;2023-08-21T07:59:12;13.02;;;10.13;;
79640;SDS011;69115;49.904;14.390;2023-08-21T08:01:38;11.75;;;10.18;;
79640;SDS011;69115;49.904;14.390;2023-08-21T08:04:04;12.63;;;10.25;;
79640;SDS011;69115;49.904;14.390;2023-08-21T08:06:29;14.15;;;10.30;;
79640;SDS011;69115;49.904;14.390;2023-08-21T08:08:56;14.75;;;10.73;;
79640;SDS011;69115;49.904;14.390;2023-08-21T08:11:22;14.10;;;9.95;;
79640;SDS011;69115;49.904;14.390;2023-08-21T08:13:47;15.30;;;10.18;;
79640;SDS011;69115;49.904;14.390;2023-08-21T08:16:13;16.48;;;10.43;;
79640;SDS011;69115;49.904;14.390;2023-08-21T08:18:38;16.35;;;10.98;;
79640;SDS011;69115;49.904;14.390;2023-08-21T08:21:04;12.65;;;10.50;;
79640;SDS011;69115;49.904;14.390;2023-08-21T08:23:29;13.85;;;10.82;;
79640;SDS011;69115;49.904;14.390;2023-08-21T08:25:55;13.82;;;10.60;;
79640;SDS011;69115;49.904;14.390;2023-08-21T08:28:20;11.50;;;10.27;;
79640;SDS011;69115;49.904;14.390;2023-08-21T08:30:46;16.13;;;10.82;;
79640;SDS011;69115;49.904;14.390;2023-08-21T08:33:11;11.60;;;10.38;;
79640;SDS011;69115;49.904;14.390;2023-08-21T08:35:37;15.40;;;11.18;;
79640;SDS011;69115;49.904;14.390;2023-08-21T08:38:03;16.58;;;10.65;;
79640;SDS011;69115;49.904;14.390;2023-08-21T08:40:28;12.13;;;10.20;;
79640;SDS011;69115;49.904;14.390;2023-08-21T08:42:54;13.00;;;9.98;;
79640;SDS011;69115;49.904;14.390;2023-08-21T08:45:24;13.70;;;10.82;;
79640;SDS011;69115;49.904;14.390;2023-08-21T08:47:55;14.63;;;10.88;;
79640;SDS011;69115;49.904;14.390;2023-08-21T08:50:23;11.18;;;9.65;;
79640;SDS011;69115;49.904;14.390;2023-08-21T08:52:49;14.80;;;10.68;;
79640;SDS011;69115;49.904;14.390;2023-08-21T08:55:14;13.48;;;10.82;;
79640;SDS011;69115;49.904;14.390;2023-08-21T08:57:40;13.95;;;10.32;;
79640;SDS011;69115;49.904;14.390;2023-08-21T09:00:05;12.32;;;9.70;;
79640;SDS011;69115;49.904;14.390;2023-08-21T09:02:32;14.30;;;10.15;;
79640;SDS011;69115;49.904;14.390;2023-08-21T09:04:57;14.55;;;10.00;;
79640;SDS011;69115;49.904;14.390;2023-08-21T09:07:23;14.60;;;11.43;;
79640;SDS011;69115;49.904;14.390;2023-08-21T09:09:49;14.02;;;10.85;;
79640;SDS011;69115;49.904;14.390;2023-08-21T09:12:17;11.57;;;9.55;;
79640;SDS011;69115;49.904;14.390;2023-08-21T09:14:43;12.23;;;9.82;;
79640;SDS011;69115;49.904;14.390;2023-08-21T09:17:09;11.40;;;9.20;;
79640;SDS011;69115;49.904;14.390;2023-08-21T09:19:35;14.77;;;10.68;;
79640;SDS011;69115;49.904;14.390;2023-08-21T09:22:16;18.92;;;11.48;;
79640;SDS011;69115;49.904;14.390;2023-08-21T09:27:44;14.73;;;11.20;;
79640;SDS011;69115;49.904;14.390;2023-08-21T09:30:10;13.55;;;11.57;;
79640;SDS011;69115;49.904;14.390;2023-08-21T09:35:37;13.75;;;10.65;;
79640;SDS011;69115;49.904;14.390;2023-08-21T09:38:03;13.13;;;11.45;;
79640;SDS011;69115;49.904;14.390;2023-08-21T09:40:28;14.70;;;9.93;;
79640;SDS011;69115;49.904;14.390;2023-08-21T09:42:54;12.98;;;10.07;;
79640;SDS011;69115;49.904;14.390;2023-08-21T09:45:24;11.82;;;10.63;;
79640;SDS011;69115;49.904;14.390;2023-08-21T09:47:53;16.13;;;10.57;;
79640;SDS011;69115;49.904;14.390;2023-08-21T09:50:19;12.60;;;10.02;;
79640;SDS011;69115;49.904;14.390;2023-08-21T09:52:45;16.17;;;11.70;;
79640;SDS011;69115;49.904;14.390;2023-08-21T09:55:11;11.32;;;10.13;;
79640;SDS011;69115;49.904;14.390;2023-08-21T09:57:39;13.60;;;10.38;;
79640;SDS011;69115;49.904;14.390;2023-08-21T10:00:08;13.45;;;10.35;;
79640;SDS011;69115;49.904;14.390;2023-08-21T10:02:54;12.75;;;10.88;;
79640;SDS011;69115;49.904;14.390;2023-08-21T10:05:21;14.15;;;10.75;;
79640;SDS011;69115;49.904;14.390;2023-08-21T10:07:47;12.60;;;10.30;;
79640;SDS011;69115;49.904;14.390;2023-08-21T10:10:14;12.25;;;10.77;;
79640;SDS011;69115;49.904;14.390;2023-08-21T10:12:40;14.60;;;10.85;;
79640;SDS011;69115;49.904;14.390;2023-08-21T10:15:09;17.70;;;11.45;;
79640;SDS011;69115;49.904;14.390;2023-08-21T10:17:35;14.18;;;11.52;;
79640;SDS011;69115;49.904;14.390;2023-08-21T10:20:04;14.15;;;11.35;;
79640;SDS011;69115;49.904;14.390;2023-08-21T10:22:47;15.00;;;11.23;;
79640;SDS011;69115;49.904;14.390;2023-08-21T10:25:23;14.20;;;10.98;;
79640;SDS011;69115;49.904;14.390;2023-08-21T10:30:22;14.43;;;10.88;;
79640;SDS011;69115;49.904;14.390;2023-08-21T10:32:48;13.93;;;10.00;;
79640;SDS011;69115;49.904;14.390;2023-08-21T10:35:15;13.65;;;10.95;;
79640;SDS011;69115;49.904;14.390;2023-08-21T10:40:34;12.80;;;9.82;;
79640;SDS011;69115;49.904;14.390;2023-08-21T10:43:00;12.95;;;10.05;;
79640;SDS011;69115;49.904;14.390;2023-08-21T10:45:26;11.27;;;10.18;;
79640;SDS011;69115;49.904;14.390;2023-08-21T10:47:51;15.45;;;10.48;;
79640;SDS011;69115;49.904;14.390;2023-08-21T10:50:17;12.10;;;10.50;;
79640;SDS011;69115;49.904;14.390;2023-08-21T10:52:43;17.10;;;10.65;;
79640;SDS011;69115;49.904;14.390;2023-08-21T10:55:13;12.50;;;9.90;;
79640;SDS011;69115;49.904;14.390;2023-08-21T10:57:40;12.80;;;9.88;;
79640;SDS011;69115;49.904;14.390;2023-08-21T11:00:13;14.40;;;9.13;;
79640;SDS011;69115;49.904;14.390;2023-08-21T11:02:41;11.43;;;9.70;;
79640;SDS011;69115;49.904;14.390;2023-08-21T11:05:07;13.80;;;10.30;;
79640;SDS011;69115;49.904;14.390;2023-08-21T11:10:15;11.30;;;10.00;;
79640;SDS011;69115;49.904;14.390;2023-08-21T11:12:48;13.52;;;9.60;;
79640;SDS011;69115;49.904;14.390;2023-08-21T11:15:18;11.23;;;8.88;;
79640;SDS011;69115;49.904;14.390;2023-08-21T11:17:57;12.25;;;9.93;;
79640;SDS011;69115;49.904;14.390;2023-08-21T11:20:34;14.88;;;10.50;;
79640;SDS011;69115;49.904;14.390;2023-08-21T11:23:01;11.60;;;8.90;;
79640;SDS011;69115;49.904;14.390;2023-08-21T11:25:30;13.68;;;9.60;;
79640;SDS011;69115;49.904;14.390;2023-08-21T11:27:56;13.07;;;9.50;;
79640;SDS011;69115;49.904;14.390;2023-08-21T11:30:22;11.15;;;9.27;;
79640;SDS011;69115;49.904;14.390;2023-08-21T11:32:48;10.68;;;9.52;;
79640;SDS011;69115;49.904;14.390;2023-08-21T11:35:15;12.90;;;9.60;;
79640;SDS011;69115;49.904;14.390;2023-08-21T11:37:44;12.05;;;9.75;;
79640;SDS011;69115;49.904;14.390;2023-08-21T11:40:11;11.82;;;9.38;;
79640;SDS011;69115;49.904;14.390;2023-08-21T11:42:38;11.85;;;9.18;;
79640;SDS011;69115;49.904;14.390;2023-08-21T11:45:04;11.75;;;9.40;;
79640;SDS011;69115;49.904;14.390;2023-08-21T11:47:33;10.77;;;9.30;;
79640;SDS011;69115;49.904;14.390;2023-08-21T11:50:06;14.43;;;8.98;;
79640;SDS011;69115;49.904;14.390;2023-08-21T11:52:33;9.77;;;8.20;;
79640;SDS011;69115;49.904;14.390;2023-08-21T11:55:06;10.60;;;7.97;;
79640;SDS011;69115;49.904;14.390;2023-08-21T11:57:32;11.27;;;8.02;;
79640;SDS011;69115;49.904;14.390;2023-08-21T11:59:58;13.73;;;8.43;;
79640;SDS011;69115;49.904;14.390;2023-08-21T12:02:24;10.05;;;8.20;;
79640;SDS011;69115;49.904;14.390;2023-08-21T12:04:54;11.48;;;7.78;;
79640;SDS011;69115;49.904;14.390;2023-08-21T12:07:27;12.73;;;7.82;;
79640;SDS011;69115;49.904;14.390;2023-08-21T12:09:52;11.93;;;8.02;;
79640;SDS011;69115;49.904;14.390;2023-08-21T12:12:18;9.93;;;7.90;;
79640;SDS011;69115;49.904;14.390;2023-08-21T12:14:43;8.80;;;7.05;;
79640;SDS011;69115;49.904;14.390;2023-08-21T12:17:09;8.57;;;6.57;;
79640;SDS011;69115;49.904;14.390;2023-08-21T12:19:34;8.13;;;6.20;;
79640;SDS011;69115;49.904;14.390;2023-08-21T12:22:00;11.07;;;6.72;;
79640;SDS011;69115;49.904;14.390;2023-08-21T12:24:25;7.55;;;6.85;;
79640;SDS011;69115;49.904;14.390;2023-08-21T12:26:51;10.13;;;7.18;;
79640;SDS011;69115;49.904;14.390;2023-08-21T12:29:17;11.75;;;7.78;;
79640;SDS011;69115;49.904;14.390;2023-08-21T12:31:42;12.23;;;8.43;;
79640;SDS011;69115;49.904;14.390;2023-08-21T12:34:08;11.93;;;8.68;;
79640;SDS011;69115;49.904;14.390;2023-08-21T12:36:36;16.20;;;8.60;;
79640;SDS011;69115;49.904;14.390;2023-08-21T12:39:02;12.27;;;8.23;;
79640;SDS011;69115;49.904;14.390;2023-08-21T12:41:29;9.85;;;8.55;;
79640;SDS011;69115;49.904;14.390;2023-08-21T12:43:55;12.13;;;8.63;;
79640;SDS011;69115;49.904;14.390;2023-08-21T12:46:20;9.75;;;8.32;;
79640;SDS011;69115;49.904;14.390;2023-08-21T12:48:46;10.05;;;7.90;;
79640;SDS011;69115;49.904;14.390;2023-08-21T12:51:11;10.75;;;8.13;;
79640;SDS011;69115;49.904;14.390;2023-08-21T12:53:37;10.68;;;8.32;;
79640;SDS011;69115;49.904;14.390;2023-08-21T12:56:02;11.90;;;7.97;;
79640;SDS011;69115;49.904;14.390;2023-08-21T12:58:28;11.95;;;7.85;;
79640;SDS011;69115;49.904;14.390;2023-08-21T13:00:54;10.32;;;7.93;;
79640;SDS011;69115;49.904;14.390;2023-08-21T13:03:20;9.80;;;7.68;;
79640;SDS011;69115;49.904;14.390;2023-08-21T13:05:46;10.40;;;8.20;;
79640;SDS011;69115;49.904;14.390;2023-08-21T13:08:11;10.48;;;8.00;;
79640;SDS011;69115;49.904;14.390;2023-08-21T13:10:37;13.30;;;8.30;;
79640;SDS011;69115;49.904;14.390;2023-08-21T13:13:02;14.38;;;8.75;;
79640;SDS011;69115;49.904;14.390;2023-08-21T13:15:28;10.43;;;7.95;;
79640;SDS011;69115;49.904;14.390;2023-08-21T13:17:53;12.30;;;8.15;;
79640;SDS011;69115;49.904;14.390;2023-08-21T13:20:19;11.13;;;9.00;;
79640;SDS011;69115;49.904;14.390;2023-08-21T13:22:48;12.68;;;9.20;;
79640;SDS011;69115;49.904;14.390;2023-08-21T13:25:17;14.25;;;10.60;;
79640;SDS011;69115;49.904;14.390;2023-08-21T13:27:43;12.15;;;9.63;;
79640;SDS011;69115;49.904;14.390;2023-08-21T13:30:09;14.60;;;9.02;;
79640;SDS011;69115;49.904;14.390;2023-08-21T13:32:35;14.00;;;9.32;;
79640;SDS011;69115;49.904;14.390;2023-08-21T13:35:01;10.18;;;8.73;;
79640;SDS011;69115;49.904;14.390;2023-08-21T13:37:29;10.05;;;8.82;;
79640;SDS011;69115;49.904;14.390;2023-08-21T13:39:55;9.70;;;8.45;;
79640;SDS011;69115;49.904;14.390;2023-08-21T13:42:24;10.18;;;8.30;;
79640;SDS011;69115;49.904;14.390;2023-08-21T13:44:50;10.20;;;7.50;;
79640;SDS011;69115;49.904;14.390;2023-08-21T13:47:16;14.10;;;9.35;;
79640;SDS011;69115;49.904;14.390;2023-08-21T13:49:41;8.25;;;7.00;;
79640;SDS011;69115;49.904;14.390;2023-08-21T13:52:07;14.07;;;9.40;;
79640;SDS011;69115;49.904;14.390;2023-08-21T13:54:32;11.07;;;8.43;;
79640;SDS011;69115;49.904;14.390;2023-08-21T13:56:58;10.82;;;9.32;;
79640;SDS011;69115;49.904;14.390;2023-08-21T13:59:25;9.90;;;8.45;;
79640;SDS011;69115;49.904;14.390;2023-08-21T14:01:50;10.98;;;8.63;;
79640;SDS011;69115;49.904;14.390;2023-08-21T14:04:19;8.82;;;7.93;;
79640;SDS011;69115;49.904;14.390;2023-08-21T14:06:45;13.68;;;8.95;;
79640;SDS011;69115;49.904;14.390;2023-08-21T14:09:10;15.27;;;9.25;;
79640;SDS011;69115;49.904;14.390;2023-08-21T14:11:36;11.48;;;9.13;;
79640;SDS011;69115;49.904;14.390;2023-08-21T14:14:01;13.27;;;9.43;;
79640;SDS011;69115;49.904;14.390;2023-08-21T14:16:26;10.52;;;8.90;;
79640;SDS011;69115;49.904;14.390;2023-08-21T14:18:52;10.80;;;8.43;;
79640;SDS011;69115;49.904;14.390;2023-08-21T14:21:17;10.25;;;8.35;;
79640;SDS011;69115;49.904;14.390;2023-08-21T14:23:43;10.02;;;8.65;;
79640;SDS011;69115;49.904;14.390;2023-08-21T14:26:08;18.08;;;9.32;;
79640;SDS011;69115;49.904;14.390;2023-08-21T14:28:34;10.85;;;9.13;;